Middleburg, Florida
Current Conditions -  °F | °C
As of 3:55 AM on Sunday 26 Oct 2014 (Local Time) from KVQQ Reporting Station
Clear Clear  
Wind Chill: 45°   Ceiling: Unl
Heat Index: 45°   Visibility: 10mi
Dew Point: 45°   Wind: 0mph
Humidity: 100%   Direction: NA
Pressure: 29.98"   Gusts: NA
Location:  30.07°N, 81.87°W
Report Text: KVQQ 260755Z AUTO 00000KT 10SM CLR 07/07 A2998 RMK AO2
Loading
Personal Weather Stations






























Interactive Weather Map
Tropical Storm Tracking
New forecast layout! Learn more

10-Day Weather Forecast

Advertisements
Track Severe Weather on mobile